Airfield :
LOGIN :

Register | Disclaimer

   EN    FR    IT 

 










Legend :    VFR   Marginal VFR   IFR   Intensive IFR   Very Intensive IFR
Visi :
Ceiling :
>= 8 km
>= 3000ft
5 to 8 km
1000 to 3000 ft
1500m to 5 km
500 to 1000 ft
800 to 1500m
200 to 500 ft
< 800m
< 200 ft
Symbols :   Thunderstorms  Fog  Heavy snow  Heavy precipitations  Wind > 20 kt
SIGMETs :     Misc.  Thunderstorms  Icing  Turbulence  Mountain Waves  Volcanic Ashes






- Airport Elevation : 686 ft
- IATA code : URS


UUOK - Vostochny

CURRENT METAR :
  • 210600Z 16002MPS CAVOK M00/M01 Q1023 R12/090060 NOSIG RMK QFE749/0999

EXPIRED METARs :
  • 210530Z 14004MPS CAVOK M01/M02 Q1023 R12/090060 NOSIG RMK QFE749/0999
  • 210500Z 14003MPS CAVOK M01/M02 Q1023 R12/090060 NOSIG RMK QFE749/0999
  • 210430Z 15002MPS CAVOK M01/M02 Q1022 R12/090060 NOSIG RMK QFE749/0999
  • 210400Z 16002MPS CAVOK M01/M02 Q1022 R12/090060 NOSIG RMK QFE749/0998
  • 210330Z 14001MPS CAVOK M01/M02 Q1022 R12/090060 NOSIG RMK QFE749/0998

TAF TAF UUOK
Valid from the 21 at 06:00 until the 21 at 15:00 UTC


210500Z 2106/2115 14003MPS 9999 BKN033
TEMPO 2106/2112 3100 -SN BKN011



MET'MAP, your aeronautical weather chart ! - Copyright ORBIFLY December 2007 - Disclaimer

ORBIFLY MET'MAP TEAM :

Programming & Development : Alexandra Zaïnal
Concept & original design : Baudouin d'Aumeries
Assistance for programming : Marc-Olivier Méhu
Technical & hardware support : Manuel Goepfert

Contact : metmap@orbifly.com




SOURCES & CREDITS :

   NOAA